Weather History for Kearney, NE

Change the Weather History Date:

Sunday, April 28, 2013

  Actual Average Record
Temperature  
Mean Temperature 19 °C 12 °C  
Max Temperature 31 °C 19 °C 37 °C (1910)
Min Temperature 7 °C 4 °C -5 °C (1918)
Degree Days  
Heating Degree Days 0 12  
Month to date heating degree days 473  
Cooling Degree Days 2 1  
Growing Degree Days 16 (Base 50)    
Moisture  
Dew Point 5 °C    
Average Humidity 53    
Maximum Humidity 93    
Minimum Humidity 12    
Precipitation  
Precipitation 0.00 mm - 4.06 mm (1982)
Sea Level Pressure  
Sea Level Pressure 1009 hPa    
Wind  
Wind Speed 21 km/h (SSW)    
Max Wind Speed 43 km/h    
Max Gust Speed 52 km/h    
Visibility 16 kilometers    
Events      
T = Trace of Precipitation, MM = Missing Value Source: NWS Daily Summary

Daily Weather History Graph

Daily Weather History Graph

Search for Another Location

Airport:

Trip Planner

Search our weather history database for the weather conditions in past years. The results will help you decide how hot, cold, wet, or windy it might be!

Date:

Astronomy

Apr. 28, 2013 Rise Set
Actual Time 6:38 AM CDT 8:29 PM CDT
Civil Twilight 6:08 AM CDT 8:58 PM CDT
Nautical Twilight 5:32 AM CDT 9:34 PM CDT
Astronomical Twilight 4:54 AM CDT 10:13 PM CDT
Moon No Moon Rise 8:55 AM CDT (4/28)
Length of Visible Light 14h 50m
Length of Day
13h 51m
Waning Gibbous, 88% of the Moon is Illuminated
Apr 28
Waning Gibbous
May 2
Last Quarter
May 9
New
May 17
First Quarter
May 24
Full

Hourly Weather History & Observations

Time (CDT) Temp. Windchill Dew Point Humidity Pressure Visibility Wind Dir Wind Speed Gust Speed Precip Events Conditions
12:15 AM 12.0 °C - 6.0 °C 67% 1013.8 hPa 16.1 km South 18.5 km/h / 5.1 m/s - N/A   Clear
12:35 AM 12.0 °C - 7.0 °C 72% 1013.8 hPa 16.1 km South 22.2 km/h / 6.2 m/s - N/A   Clear
12:55 AM 12.0 °C - 7.0 °C 72% 1013.8 hPa 16.1 km South 22.2 km/h / 6.2 m/s - N/A   Clear
1:15 AM 12.0 °C - 8.0 °C 77% 1013.4 hPa 16.1 km South 24.1 km/h / 6.7 m/s - N/A   Clear
1:35 AM 12.0 °C - 8.0 °C 77% 1013.4 hPa 16.1 km SSW 20.4 km/h / 5.7 m/s - N/A   Clear
1:55 AM 12.0 °C - 8.0 °C 77% 1013.1 hPa 16.1 km SSW 22.2 km/h / 6.2 m/s - N/A   Clear
2:15 AM 11.0 °C - 8.0 °C 82% 1013.1 hPa 16.1 km SSW 18.5 km/h / 5.1 m/s - N/A   Clear
2:35 AM 10.0 °C - 7.0 °C 82% 1013.1 hPa 16.1 km South 11.1 km/h / 3.1 m/s - N/A   Clear
2:55 AM 9.0 °C - 7.0 °C 87% 1012.8 hPa 16.1 km South 7.4 km/h / 2.1 m/s - N/A   Clear
3:15 AM 9.0 °C - 7.0 °C 87% 1012.4 hPa 16.1 km South 14.8 km/h / 4.1 m/s - N/A   Clear
3:35 AM 9.0 °C - 7.0 °C 87% 1012.4 hPa 16.1 km South 14.8 km/h / 4.1 m/s - N/A   Clear
3:55 AM 8.0 °C 5.5 °C 7.0 °C 93% 1012.1 hPa 16.1 km South 14.8 km/h / 4.1 m/s - N/A   Clear
4:15 AM 8.0 °C 5.3 °C 7.0 °C 93% 1011.7 hPa 16.1 km South 16.7 km/h / 4.6 m/s - N/A   Clear
4:35 AM 8.0 °C 5.0 °C 6.0 °C 87% 1011.4 hPa 16.1 km South 18.5 km/h / 5.1 m/s - N/A   Clear
4:55 AM 9.0 °C - 7.0 °C 87% 1011.4 hPa 16.1 km South 18.5 km/h / 5.1 m/s - N/A   Clear
5:15 AM 9.0 °C - 7.0 °C 87% 1011.4 hPa 16.1 km SSW 14.8 km/h / 4.1 m/s - N/A   Clear
5:35 AM 9.0 °C - 7.0 °C 87% 1011.4 hPa 16.1 km SSW 9.3 km/h / 2.6 m/s - N/A   Clear
5:55 AM 8.0 °C 6.1 °C 6.0 °C 87% 1011.1 hPa 16.1 km South 11.1 km/h / 3.1 m/s - N/A   Clear
6:15 AM 8.0 °C 5.8 °C 6.0 °C 87% 1011.1 hPa 16.1 km South 13.0 km/h / 3.6 m/s - N/A   Clear
6:35 AM 7.0 °C 4.5 °C 6.0 °C 93% 1011.1 hPa 16.1 km South 13.0 km/h / 3.6 m/s - N/A   Clear
6:55 AM 7.0 °C 4.5 °C 6.0 °C 93% 1011.1 hPa 16.1 km South 13.0 km/h / 3.6 m/s - N/A   Clear
7:15 AM 7.0 °C 4.3 °C 6.0 °C 93% 1011.1 hPa 16.1 km South 14.8 km/h / 4.1 m/s - N/A   Clear
7:35 AM 8.0 °C 5.8 °C 7.0 °C 93% 1011.1 hPa 16.1 km South 13.0 km/h / 3.6 m/s - N/A   Clear
7:55 AM 9.0 °C - 7.0 °C 87% 1011.1 hPa 16.1 km South 13.0 km/h / 3.6 m/s - N/A   Clear
8:15 AM 9.0 °C - 8.0 °C 93% 1010.7 hPa 16.1 km South 13.0 km/h / 3.6 m/s - N/A   Clear
8:35 AM 11.0 °C - 8.0 °C 82% 1010.7 hPa 16.1 km South 16.7 km/h / 4.6 m/s - N/A   Clear
8:55 AM 12.0 °C - 8.0 °C 77% 1010.4 hPa 16.1 km South 20.4 km/h / 5.7 m/s - N/A   Clear
9:15 AM 13.0 °C - 9.0 °C 77% 1010.4 hPa 16.1 km SSW 20.4 km/h / 5.7 m/s - N/A   Clear
9:35 AM 13.0 °C - 9.0 °C 77% 1010.0 hPa 16.1 km SSW 18.5 km/h / 5.1 m/s - N/A   Clear
9:55 AM 15.0 °C - 9.0 °C 67% 1009.7 hPa 16.1 km SSW 18.5 km/h / 5.1 m/s - N/A   Clear
10:15 AM 17.0 °C - 9.0 °C 59% 1009.7 hPa 16.1 km South 14.8 km/h / 4.1 m/s - N/A   Clear
10:35 AM 18.0 °C - 9.0 °C 56% 1009.4 hPa 16.1 km South 18.5 km/h / 5.1 m/s - N/A   Clear
10:55 AM 19.0 °C - 8.0 °C 49% 1009.4 hPa 16.1 km South 13.0 km/h / 3.6 m/s - N/A   Clear
11:15 AM 21.0 °C - 8.0 °C 43% 1009.4 hPa 16.1 km SSW 11.1 km/h / 3.1 m/s - N/A   Clear
11:35 AM 22.0 °C - 8.0 °C 41% 1009.0 hPa 16.1 km South 13.0 km/h / 3.6 m/s - N/A   Clear
11:55 AM 23.0 °C - 7.0 °C 36% 1008.7 hPa 16.1 km South 18.5 km/h / 5.1 m/s - N/A   Clear
12:15 PM 24.0 °C - 7.0 °C 34% 1008.7 hPa 16.1 km South 24.1 km/h / 6.7 m/s 33.3 km/h / 9.3 m/s N/A   Clear
12:35 PM 25.0 °C - 7.0 °C 32% 1008.4 hPa 16.1 km South 24.1 km/h / 6.7 m/s - N/A   Clear
12:55 PM 26.0 °C - 7.0 °C 30% 1008.0 hPa 16.1 km South 22.2 km/h / 6.2 m/s 33.3 km/h / 9.3 m/s N/A   Clear
1:15 PM 26.0 °C - 6.0 °C 28% 1007.7 hPa 16.1 km South 24.1 km/h / 6.7 m/s 31.5 km/h / 8.7 m/s N/A   Clear
1:35 PM 27.0 °C - 6.0 °C 26% 1007.3 hPa 16.1 km South 27.8 km/h / 7.7 m/s 33.3 km/h / 9.3 m/s N/A   Clear
1:55 PM 26.0 °C - 6.0 °C 28% 1007.3 hPa 16.1 km SSW 25.9 km/h / 7.2 m/s 37.0 km/h / 10.3 m/s N/A   Clear
2:15 PM 26.0 °C - 6.0 °C 28% 1007.3 hPa 16.1 km South 29.6 km/h / 8.2 m/s 35.2 km/h / 9.8 m/s N/A   Clear
2:35 PM 27.0 °C - 6.0 °C 26% 1007.0 hPa 16.1 km South 22.2 km/h / 6.2 m/s 33.3 km/h / 9.3 m/s N/A   Clear
2:55 PM 28.0 °C - 7.0 °C 26% 1007.0 hPa 16.1 km SW 24.1 km/h / 6.7 m/s 35.2 km/h / 9.8 m/s N/A   Clear
3:15 PM 29.0 °C - 3.0 °C 19% 1006.7 hPa 16.1 km SSW 24.1 km/h / 6.7 m/s 31.5 km/h / 8.7 m/s N/A   Clear
3:35 PM 29.0 °C - 1.0 °C 16% 1006.7 hPa 16.1 km SW 20.4 km/h / 5.7 m/s - N/A   Clear
3:55 PM 28.0 °C - 3.0 °C 20% 1006.0 hPa 16.1 km SSW 16.7 km/h / 4.6 m/s - N/A   Clear
4:15 PM 29.0 °C - 3.0 °C 19% 1005.6 hPa 16.1 km SW 11.1 km/h / 3.1 m/s 29.6 km/h / 8.2 m/s N/A   Clear
4:35 PM 30.0 °C - 3.0 °C 18% 1005.3 hPa 16.1 km SSE 14.8 km/h / 4.1 m/s - N/A   Clear
4:55 PM 31.0 °C - 1.0 °C 15% 1005.0 hPa 16.1 km WSW 9.3 km/h / 2.6 m/s - N/A   Clear
5:15 PM 31.0 °C - -1.0 °C 13% 1004.6 hPa 16.1 km WSW 29.6 km/h / 8.2 m/s 35.2 km/h / 9.8 m/s N/A   Clear
5:35 PM 31.0 °C - -2.0 °C 12% 1004.6 hPa 16.1 km West 25.9 km/h / 7.2 m/s 38.9 km/h / 10.8 m/s N/A   Clear
5:55 PM 31.0 °C - -2.0 °C 12% 1004.6 hPa 16.1 km West 18.5 km/h / 5.1 m/s - N/A   Clear
6:15 PM 31.0 °C - -2.0 °C 12% 1004.6 hPa 16.1 km West 14.8 km/h / 4.1 m/s - N/A   Clear
6:35 PM 31.0 °C - -1.0 °C 13% 1004.6 hPa 16.1 km NW 14.8 km/h / 4.1 m/s - N/A   Clear
6:55 PM 28.0 °C - 3.0 °C 20% 1005.0 hPa 16.1 km NNW 42.6 km/h / 11.8 m/s 51.9 km/h / 14.4 m/s N/A   Clear
7:15 PM 26.0 °C - 3.0 °C 23% 1005.6 hPa 16.1 km NNW 35.2 km/h / 9.8 m/s 48.2 km/h / 13.4 m/s N/A   Clear
7:35 PM 25.0 °C - 2.0 °C 22% 1006.0 hPa 16.1 km North 42.6 km/h / 11.8 m/s 57.4 km/h / 15.9 m/s N/A   Clear
7:55 PM 24.0 °C - 2.0 °C 24% 1006.3 hPa 16.1 km NNW 35.2 km/h / 9.8 m/s - N/A   Clear
8:15 PM 24.0 °C - 3.0 °C 25% 1006.7 hPa 16.1 km North 31.5 km/h / 8.7 m/s 42.6 km/h / 11.8 m/s N/A   Clear
8:35 PM 23.0 °C - 3.0 °C 27% 1007.0 hPa 16.1 km North 35.2 km/h / 9.8 m/s 44.4 km/h / 12.3 m/s N/A   Clear
8:55 PM 21.0 °C - 2.0 °C 28% 1007.7 hPa 16.1 km North 29.6 km/h / 8.2 m/s 42.6 km/h / 11.8 m/s N/A   Clear
9:15 PM 21.0 °C - 2.0 °C 28% 1007.7 hPa 16.1 km North 31.5 km/h / 8.7 m/s 37.0 km/h / 10.3 m/s N/A   Clear
9:35 PM 19.0 °C - 2.0 °C 32% 1008.0 hPa 16.1 km North 25.9 km/h / 7.2 m/s 37.0 km/h / 10.3 m/s N/A   Clear
9:55 PM 19.0 °C - 2.0 °C 32% 1008.4 hPa 16.1 km North 29.6 km/h / 8.2 m/s - N/A   Clear
10:15 PM 18.0 °C - 2.0 °C 34% 1008.7 hPa 16.1 km North 31.5 km/h / 8.7 m/s 38.9 km/h / 10.8 m/s N/A   Clear
10:35 PM 17.0 °C - 2.0 °C 37% 1008.7 hPa 16.1 km North 24.1 km/h / 6.7 m/s - N/A   Clear
10:55 PM 17.0 °C - 3.0 °C 39% 1008.7 hPa 16.1 km NNE 29.6 km/h / 8.2 m/s - N/A   Clear
11:15 PM 17.0 °C - 3.0 °C 39% 1009.4 hPa 16.1 km NNE 31.5 km/h / 8.7 m/s - N/A   Clear
11:35 PM 17.0 °C - 3.0 °C 39% 1008.7 hPa 16.1 km NNE 29.6 km/h / 8.2 m/s - N/A   Clear
11:55 PM 17.0 °C - 4.0 °C 42% 1008.7 hPa 16.1 km NE 29.6 km/h / 8.2 m/s 37.0 km/h / 10.3 m/s N/A   Clear